createdAt,value
2022-10-19T00:02:30.755Z,7.97
2022-10-19T00:05:33.241Z,7.92
2022-10-19T00:08:35.701Z,7.81
2022-10-19T00:11:40.407Z,7.60
2022-10-19T00:14:42.820Z,8.00
2022-10-19T00:17:45.194Z,8.12
2022-10-19T00:20:47.681Z,8.26
2022-10-19T00:23:50.126Z,7.96
2022-10-19T00:26:52.543Z,8.11
2022-10-19T00:29:54.910Z,7.92
2022-10-19T00:32:57.447Z,8.08
2022-10-19T00:35:59.806Z,8.25
2022-10-19T00:39:04.615Z,8.20
2022-10-19T00:42:10.954Z,8.22
2022-10-19T00:45:16.305Z,8.30
2022-10-19T00:48:30.677Z,8.15
2022-10-19T00:51:35.060Z,8.08
2022-10-19T00:54:39.239Z,8.00
2022-10-19T00:57:41.791Z,7.99
2022-10-19T01:00:44.285Z,8.13
2022-10-19T01:03:46.815Z,8.20
2022-10-19T01:06:49.234Z,8.09
2022-10-19T01:09:52.736Z,7.97
2022-10-19T01:13:15.278Z,8.02
2022-10-19T01:16:27.478Z,8.21
2022-10-19T01:19:35.671Z,8.22
2022-10-19T01:23:08.862Z,8.10
2022-10-19T01:26:32.945Z,7.83
2022-10-19T01:30:12.941Z,7.51
2022-10-19T01:33:18.230Z,7.73
2022-10-19T01:36:33.020Z,8.05
2022-10-19T01:39:46.409Z,8.05
2022-10-19T01:42:58.396Z,8.34
2022-10-19T01:46:32.070Z,8.41
2022-10-19T01:49:47.510Z,8.34
2022-10-19T01:52:50.978Z,8.60
2022-10-19T01:55:54.385Z,8.48
2022-10-19T01:58:58.372Z,8.60
2022-10-19T02:02:03.364Z,8.56
2022-10-19T02:05:06.539Z,8.48
2022-10-19T02:08:19.310Z,8.44
2022-10-19T02:11:23.468Z,8.15
2022-10-19T02:14:31.222Z,7.89
2022-10-19T02:17:37.419Z,7.62
2022-10-19T02:20:40.009Z,7.84
2022-10-19T02:23:42.555Z,7.98
2022-10-19T02:26:45.223Z,7.88
2022-10-19T02:29:47.938Z,7.37
2022-10-19T02:32:50.756Z,7.46
2022-10-19T02:35:53.239Z,7.61
2022-10-19T02:38:55.607Z,7.75
2022-10-19T02:42:03.491Z,7.71
2022-10-19T02:45:17.746Z,7.76
2022-10-19T02:48:22.941Z,8.25
2022-10-19T02:51:36.854Z,8.35
2022-10-19T02:54:40.859Z,8.52
2022-10-19T02:57:43.247Z,8.69
2022-10-19T03:00:45.691Z,8.87
2022-10-19T03:03:48.460Z,8.72
2022-10-19T03:06:50.827Z,8.87
2022-10-19T03:09:53.268Z,9.11
2022-10-19T03:12:58.173Z,8.96
2022-10-19T03:16:11.115Z,9.30
2022-10-19T03:19:13.806Z,9.26
2022-10-19T03:22:16.831Z,9.05
2022-10-19T03:25:19.268Z,8.92
2022-10-19T03:28:21.627Z,8.93
2022-10-19T03:31:25.681Z,8.90
2022-10-19T03:34:28.115Z,9.21
2022-10-19T03:37:30.496Z,9.15
2022-10-19T03:40:33.663Z,9.35
2022-10-19T03:43:36.051Z,9.41
2022-10-19T03:46:39.300Z,9.46
2022-10-19T03:49:43.508Z,9.63
2022-10-19T03:52:45.884Z,9.60
2022-10-19T03:55:48.218Z,9.62
2022-10-19T03:58:51.736Z,9.62
2022-10-19T04:01:54.118Z,9.77
2022-10-19T04:04:56.488Z,9.99
2022-10-19T04:07:58.891Z,9.70
2022-10-19T04:11:03.165Z,9.86
2022-10-19T04:14:05.815Z,9.95
2022-10-19T04:17:09.143Z,10.16
2022-10-19T04:20:11.708Z,10.16
2022-10-19T04:26:23.223Z,9.98
2022-10-19T04:29:29.598Z,10.03
2022-10-19T04:32:33.092Z,10.05
2022-10-19T04:35:35.423Z,10.05
2022-10-19T04:38:38.450Z,9.95
2022-10-19T04:41:40.948Z,10.05
2022-10-19T04:44:43.502Z,9.94
2022-10-19T04:47:45.845Z,9.92
2022-10-19T04:50:48.256Z,9.92
2022-10-19T04:53:59.546Z,9.84
2022-10-19T04:57:02.326Z,9.72
2022-10-19T05:00:05.390Z,9.89
2022-10-19T05:03:07.969Z,9.97
2022-10-19T05:06:11.432Z,9.97
2022-10-19T05:09:13.905Z,10.20
2022-10-19T05:12:16.465Z,10.30
2022-10-19T05:15:19.313Z,10.46
2022-10-19T05:18:21.770Z,10.49
2022-10-19T05:21:24.876Z,10.28
2022-10-19T05:24:27.509Z,10.26
2022-10-19T05:27:29.911Z,10.36
2022-10-19T05:30:32.902Z,10.29
2022-10-19T05:33:35.926Z,10.30
2022-10-19T05:36:39.927Z,10.50
2022-10-19T05:39:42.902Z,10.53
2022-10-19T05:42:45.392Z,10.33
2022-10-19T05:45:47.945Z,10.43
2022-10-19T05:48:50.469Z,10.54
2022-10-19T05:51:53.017Z,10.62
2022-10-19T05:54:56.872Z,10.59
2022-10-19T05:57:59.320Z,10.62
2022-10-19T06:01:02.692Z,10.50
2022-10-19T06:04:07.100Z,10.41
2022-10-19T06:07:09.640Z,10.41
2022-10-19T06:10:12.466Z,10.29
2022-10-19T06:13:16.045Z,10.32
2022-10-19T06:16:20.194Z,10.28
2022-10-19T06:19:22.674Z,10.16
2022-10-19T06:22:25.093Z,10.03
2022-10-19T06:25:27.469Z,10.13
2022-10-19T06:28:30.068Z,10.18
2022-10-19T06:31:34.813Z,10.34
2022-10-19T06:34:37.240Z,10.41
2022-10-19T06:37:39.675Z,10.67
2022-10-19T06:40:42.752Z,10.69
2022-10-19T06:43:52.311Z,10.68
2022-10-19T06:46:54.643Z,11.02
2022-10-19T06:49:57.553Z,11.17
2022-10-19T06:53:00.105Z,11.41
2022-10-19T06:56:04.772Z,11.64
2022-10-19T06:59:07.136Z,11.88
2022-10-19T07:02:13.082Z,11.93
2022-10-19T07:05:15.705Z,12.13
2022-10-19T07:08:18.150Z,12.42
2022-10-19T07:11:22.503Z,12.94
2022-10-19T07:14:25.389Z,13.09
2022-10-19T07:17:27.851Z,12.56
2022-10-19T07:20:30.449Z,12.51
2022-10-19T07:23:34.640Z,12.50
2022-10-19T07:26:37.064Z,12.70
2022-10-19T07:29:39.477Z,13.28
2022-10-19T07:32:46.746Z,13.46
2022-10-19T07:35:49.687Z,13.74
2022-10-19T07:38:52.688Z,14.22
2022-10-19T07:41:55.094Z,14.19
2022-10-19T07:44:57.559Z,14.25
2022-10-19T07:48:00.171Z,14.58
2022-10-19T07:51:06.393Z,14.35
2022-10-19T07:54:09.614Z,14.42
2022-10-19T08:02:20.619Z,15.20
2022-10-19T08:05:23.134Z,15.49
2022-10-19T08:08:25.889Z,15.59
2022-10-19T08:11:31.275Z,15.60
2022-10-19T08:14:34.118Z,15.58
2022-10-19T08:17:37.062Z,15.51
2022-10-19T08:20:45.766Z,15.37
2022-10-19T08:23:48.812Z,15.02
2022-10-19T08:26:52.247Z,15.27
2022-10-19T08:29:54.963Z,15.67
2022-10-19T08:32:57.367Z,15.92
2022-10-19T08:35:59.707Z,15.78
2022-10-19T08:39:05.277Z,16.25
2022-10-19T08:42:57.547Z,16.16
2022-10-19T08:46:33.785Z,16.66
2022-10-19T08:49:36.505Z,16.42
2022-10-19T08:52:39.336Z,16.55
2022-10-19T08:55:54.563Z,16.43
2022-10-19T08:59:12.970Z,15.97
2022-10-19T09:02:20.803Z,15.88
2022-10-19T09:05:40.655Z,15.94
2022-10-19T09:08:44.116Z,15.95
2022-10-19T09:11:50.326Z,15.88
2022-10-19T09:14:59.784Z,15.90
2022-10-19T09:18:03.607Z,16.04
2022-10-19T09:21:20.839Z,16.54
2022-10-19T09:24:44.428Z,16.39
2022-10-19T09:27:49.840Z,16.46
2022-10-19T09:30:55.805Z,16.57
2022-10-19T09:34:26.436Z,16.46
2022-10-19T09:40:37.614Z,16.63
2022-10-19T09:43:45.123Z,16.85
2022-10-19T09:47:13.922Z,17.27
2022-10-19T09:50:25.954Z,17.02
2022-10-19T09:53:29.839Z,17.09
2022-10-19T09:56:38.546Z,16.74
2022-10-19T09:59:42.581Z,16.60
2022-10-19T10:02:53.431Z,16.79
2022-10-19T10:05:58.695Z,16.94
2022-10-19T10:09:01.826Z,16.92
2022-10-19T10:12:04.711Z,17.18
2022-10-19T10:15:07.827Z,17.47
2022-10-19T10:18:16.129Z,17.67
2022-10-19T10:21:25.784Z,17.55
2022-10-19T10:24:31.305Z,18.18
2022-10-19T10:27:38.935Z,18.59
2022-10-19T10:30:41.936Z,18.56
2022-10-19T10:33:45.555Z,18.09
2022-10-19T10:36:53.928Z,18.22
2022-10-19T10:40:00.528Z,18.16
2022-10-19T10:43:15.909Z,18.52
2022-10-19T10:46:22.381Z,18.36
2022-10-19T10:49:28.386Z,18.18
2022-10-19T10:52:31.461Z,18.37
2022-10-19T10:55:34.423Z,18.27
2022-10-19T10:59:02.457Z,18.42
2022-10-19T11:02:11.927Z,18.56
2022-10-19T11:05:20.577Z,18.78
2022-10-19T11:08:47.088Z,18.35
2022-10-19T11:11:55.886Z,18.15
2022-10-19T11:15:11.960Z,18.14
2022-10-19T11:18:27.267Z,18.18
2022-10-19T11:21:42.986Z,18.54
2022-10-19T11:25:12.615Z,18.84
2022-10-19T11:28:42.920Z,18.70
2022-10-19T11:31:55.418Z,18.79
2022-10-19T11:35:06.177Z,19.30
2022-10-19T11:38:20.347Z,19.38
2022-10-19T11:41:27.850Z,19.53
2022-10-19T11:44:43.608Z,18.96
2022-10-19T11:48:04.392Z,19.02
2022-10-19T11:51:25.828Z,19.02
2022-10-19T11:54:49.446Z,18.50
2022-10-19T11:58:17.953Z,18.42
2022-10-19T12:01:46.634Z,19.12
2022-10-19T12:05:02.140Z,19.06
2022-10-19T12:08:16.500Z,19.16
2022-10-19T12:11:36.596Z,18.34
2022-10-19T12:14:40.795Z,18.68
2022-10-19T12:17:45.531Z,18.15
2022-10-19T12:20:51.529Z,17.89
2022-10-19T12:23:54.816Z,17.76
2022-10-19T12:26:57.981Z,17.60
2022-10-19T12:30:08.026Z,17.55
2022-10-19T12:33:21.301Z,17.46
2022-10-19T12:36:33.104Z,17.63
2022-10-19T12:39:49.915Z,17.59
2022-10-19T12:43:33.694Z,19.54
2022-10-19T12:46:42.702Z,18.99
2022-10-19T12:49:50.627Z,19.33
2022-10-19T12:52:55.310Z,21.08
2022-10-19T12:55:59.268Z,21.39
2022-10-19T12:59:01.953Z,21.40
2022-10-19T13:02:25.636Z,19.87
2022-10-19T13:05:29.884Z,19.14
2022-10-19T13:08:39.070Z,21.11
2022-10-19T13:12:25.851Z,19.61
2022-10-19T13:15:33.975Z,18.61
2022-10-19T13:19:01.191Z,18.37
2022-10-19T13:22:25.737Z,18.26
2022-10-19T13:25:41.503Z,17.36
2022-10-19T13:28:54.551Z,17.13
2022-10-19T13:32:35.632Z,16.69
2022-10-19T13:35:39.031Z,16.62
2022-10-19T13:38:50.392Z,18.05
2022-10-19T13:41:54.180Z,19.93
2022-10-19T13:44:56.724Z,20.03
2022-10-19T13:48:10.276Z,18.13
2022-10-19T13:51:33.631Z,17.85
2022-10-19T13:55:11.601Z,19.82
2022-10-19T13:58:38.450Z,18.32
2022-10-19T14:02:15.140Z,17.20
2022-10-19T14:05:43.472Z,16.69
2022-10-19T14:09:23.805Z,16.39
2022-10-19T14:12:29.724Z,16.58
2022-10-19T14:15:34.654Z,16.46
2022-10-19T14:18:37.707Z,17.64
2022-10-19T14:21:40.136Z,18.17
2022-10-19T14:24:42.493Z,17.16
2022-10-19T14:27:46.205Z,16.49
2022-10-19T14:30:55.775Z,16.13
2022-10-19T14:34:01.664Z,16.10
2022-10-19T14:37:04.095Z,15.96
2022-10-19T14:40:26.784Z,15.95
2022-10-19T14:43:31.674Z,15.79
2022-10-19T14:46:34.732Z,15.63
2022-10-19T14:49:37.256Z,15.62
2022-10-19T14:52:40.410Z,15.78
2022-10-19T14:55:43.186Z,15.57
2022-10-19T14:58:50.529Z,15.46
2022-10-19T15:01:57.428Z,15.22
2022-10-19T15:05:02.039Z,15.28
2022-10-19T15:08:11.489Z,15.34
2022-10-19T15:11:40.909Z,15.51
2022-10-19T15:14:43.500Z,15.43
2022-10-19T15:17:54.003Z,15.79
2022-10-19T15:21:12.071Z,15.62
2022-10-19T15:24:26.615Z,15.31
2022-10-19T15:27:47.202Z,15.05
2022-10-19T15:31:04.384Z,15.29
2022-10-19T15:34:35.806Z,15.20
2022-10-19T15:37:41.901Z,15.00
2022-10-19T15:40:46.053Z,14.80
2022-10-19T15:43:50.732Z,14.78
2022-10-19T15:47:14.786Z,14.78
2022-10-19T15:50:31.554Z,14.72
2022-10-19T15:53:33.943Z,14.58
2022-10-19T15:56:39.144Z,14.75
2022-10-19T15:59:41.591Z,14.68
2022-10-19T16:02:44.228Z,14.55
2022-10-19T16:05:47.198Z,14.51
2022-10-19T16:08:51.249Z,14.60
2022-10-19T16:11:57.088Z,14.28
2022-10-19T16:14:59.488Z,14.19
2022-10-19T16:18:02.073Z,14.22
2022-10-19T16:21:05.284Z,14.06
2022-10-19T16:24:08.095Z,14.04
2022-10-19T16:27:15.041Z,13.90
2022-10-19T16:30:17.893Z,13.78
2022-10-19T16:33:20.579Z,13.73
2022-10-19T16:36:23.060Z,13.71
2022-10-19T16:39:25.663Z,13.71
2022-10-19T16:42:30.449Z,13.61
2022-10-19T16:45:33.453Z,13.58
2022-10-19T16:48:35.966Z,13.44
2022-10-19T16:51:42.116Z,13.44
2022-10-19T16:54:44.465Z,13.53
2022-10-19T16:57:46.823Z,13.49
2022-10-19T17:00:49.259Z,13.37
2022-10-19T17:03:51.923Z,13.36
2022-10-19T17:06:54.583Z,13.25
2022-10-19T17:09:57.159Z,13.37
2022-10-19T17:12:59.983Z,13.20
2022-10-19T17:16:03.693Z,13.26
2022-10-19T17:19:08.127Z,13.23
2022-10-19T17:22:11.016Z,13.14
2022-10-19T17:25:13.710Z,13.17
2022-10-19T17:28:16.121Z,13.10
2022-10-19T17:31:19.002Z,13.03
2022-10-19T17:34:21.780Z,13.20
2022-10-19T17:37:24.460Z,13.30
2022-10-19T17:40:33.134Z,13.34
2022-10-19T17:43:37.984Z,13.25
2022-10-19T17:46:40.676Z,13.17
2022-10-19T17:49:43.520Z,12.91
2022-10-19T17:52:46.736Z,12.93
2022-10-19T17:55:49.136Z,12.97
2022-10-19T17:58:52.465Z,13.03
2022-10-19T18:01:55.156Z,13.03
2022-10-19T18:04:57.829Z,13.05
2022-10-19T18:08:00.431Z,13.14
2022-10-19T18:11:07.699Z,12.75
2022-10-19T18:14:11.634Z,12.91
2022-10-19T18:17:14.244Z,12.98
2022-10-19T18:20:19.645Z,12.84
2022-10-19T18:23:22.447Z,12.75
2022-10-19T18:26:27.380Z,12.71
2022-10-19T18:29:30.260Z,12.68
2022-10-19T18:32:33.232Z,12.71
2022-10-19T18:35:37.395Z,12.69
2022-10-19T18:38:40.245Z,12.68
2022-10-19T18:41:44.423Z,12.62
2022-10-19T18:44:47.358Z,12.88
2022-10-19T18:47:51.120Z,12.83
2022-10-19T18:50:53.972Z,12.62
2022-10-19T18:53:56.675Z,12.71
2022-10-19T18:56:59.847Z,12.87
2022-10-19T19:00:02.541Z,12.91
2022-10-19T19:03:05.270Z,12.86
2022-10-19T19:06:11.188Z,12.66
2022-10-19T19:09:14.166Z,12.53
2022-10-19T19:12:17.216Z,12.54
2022-10-19T19:15:20.187Z,12.62
2022-10-19T19:18:23.193Z,12.66
2022-10-19T19:21:28.452Z,12.55
2022-10-19T19:24:32.770Z,12.60
2022-10-19T19:27:35.417Z,12.40
2022-10-19T19:30:42.753Z,12.52
2022-10-19T19:33:46.123Z,12.28
2022-10-19T19:36:49.161Z,12.28
2022-10-19T19:39:51.767Z,12.42
2022-10-19T19:42:54.368Z,12.61
2022-10-19T19:46:00.036Z,12.34
2022-10-19T19:49:05.347Z,12.34
2022-10-19T19:52:08.000Z,12.18
2022-10-19T19:55:10.600Z,12.08
2022-10-19T19:58:15.477Z,12.02
2022-10-19T20:01:19.739Z,11.91
2022-10-19T20:04:22.450Z,11.75
2022-10-19T20:07:26.841Z,11.97
2022-10-19T20:10:30.279Z,12.55
2022-10-19T20:13:33.437Z,12.20
2022-10-19T20:16:36.977Z,12.12
2022-10-19T20:19:39.712Z,11.92
2022-10-19T20:22:46.201Z,11.68
2022-10-19T20:25:48.831Z,11.68
2022-10-19T20:28:52.140Z,11.91
2022-10-19T20:31:55.933Z,11.86
2022-10-19T20:34:59.955Z,11.81
2022-10-19T20:38:04.219Z,11.64
2022-10-19T20:41:09.262Z,11.45
2022-10-19T20:44:11.655Z,11.40
2022-10-19T20:47:14.176Z,11.58
2022-10-19T20:50:20.599Z,11.31
2022-10-19T20:53:24.325Z,11.11
2022-10-19T20:56:29.447Z,10.84
2022-10-19T20:59:33.298Z,10.83
2022-10-19T21:02:36.095Z,10.72
2022-10-19T21:05:38.907Z,11.07
2022-10-19T21:08:41.513Z,11.12
2022-10-19T21:11:45.290Z,11.04
2022-10-19T21:14:49.157Z,10.98
2022-10-19T21:17:51.548Z,10.69
2022-10-19T21:20:53.931Z,10.46
2022-10-19T21:23:58.919Z,10.34
2022-10-19T21:27:02.628Z,10.39
2022-10-19T21:30:05.309Z,10.50
2022-10-19T21:33:07.667Z,10.55
2022-10-19T21:36:10.900Z,10.50
2022-10-19T21:39:13.640Z,10.27
2022-10-19T21:42:16.033Z,10.41
2022-10-19T21:45:29.849Z,10.38
2022-10-19T21:48:34.028Z,10.34
2022-10-19T21:51:39.899Z,10.44
2022-10-19T21:54:42.376Z,10.34
2022-10-19T21:57:46.480Z,10.27
2022-10-19T22:00:50.158Z,10.29
2022-10-19T22:04:00.262Z,10.22
2022-10-19T22:07:02.635Z,10.14
2022-10-19T22:10:05.389Z,10.09
2022-10-19T22:13:07.904Z,10.17
2022-10-19T22:16:19.037Z,10.19
2022-10-19T22:19:21.520Z,10.22
2022-10-19T22:22:23.890Z,10.20
2022-10-19T22:25:26.198Z,10.15
2022-10-19T22:28:28.771Z,9.92
2022-10-19T22:31:32.243Z,9.86
2022-10-19T22:34:34.584Z,9.36
2022-10-19T22:37:36.990Z,9.28
2022-10-19T22:40:41.396Z,9.07
2022-10-19T22:43:43.811Z,9.08
2022-10-19T22:46:46.132Z,8.89
2022-10-19T22:49:48.666Z,8.70
2022-10-19T22:52:51.040Z,8.77
2022-10-19T22:55:53.451Z,8.88
2022-10-19T22:59:00.289Z,8.79
2022-10-19T23:02:02.848Z,8.84
2022-10-19T23:05:05.701Z,8.81
2022-10-19T23:08:08.074Z,8.84
2022-10-19T23:11:10.759Z,8.56
2022-10-19T23:14:13.101Z,8.50
2022-10-19T23:17:15.451Z,8.76
2022-10-19T23:20:19.564Z,8.56
2022-10-19T23:23:22.459Z,8.52
2022-10-19T23:26:25.102Z,8.36
2022-10-19T23:29:27.606Z,8.35
2022-10-19T23:32:30.146Z,8.55
2022-10-19T23:35:32.475Z,8.61
2022-10-19T23:38:35.634Z,8.44
2022-10-19T23:41:38.061Z,8.42
2022-10-19T23:44:40.432Z,8.06
2022-10-19T23:47:42.771Z,7.99
2022-10-19T23:50:56.699Z,8.02
2022-10-19T23:53:59.434Z,7.89
2022-10-19T23:57:01.937Z,7.97
